createdAt,value
2017-06-08T00:03:44.086Z,13.71
2017-06-08T00:04:24.629Z,13.7
2017-06-08T00:05:05.176Z,13.66
2017-06-08T00:05:45.707Z,13.66
2017-06-08T00:06:26.246Z,13.75
2017-06-08T00:07:06.790Z,13.7
2017-06-08T00:07:47.321Z,13.69
2017-06-08T00:08:27.867Z,13.69
2017-06-08T00:09:08.403Z,13.67
2017-06-08T00:09:48.940Z,13.66
2017-06-08T00:10:29.518Z,13.66
2017-06-08T00:11:10.030Z,13.64
2017-06-08T00:11:50.565Z,13.64
2017-06-08T00:12:31.111Z,13.66
2017-06-08T00:13:11.651Z,13.62
2017-06-08T00:13:52.188Z,13.57
2017-06-08T00:14:32.725Z,13.63
2017-06-08T00:15:13.261Z,13.6
2017-06-08T00:15:53.805Z,13.63
2017-06-08T00:16:34.339Z,13.66
2017-06-08T00:17:14.881Z,13.66
2017-06-08T00:17:55.425Z,13.67
2017-06-08T00:18:35.967Z,13.7
2017-06-08T00:19:16.511Z,13.71
2017-06-08T00:19:57.052Z,13.71
2017-06-08T00:20:37.593Z,13.69
2017-06-08T00:21:18.131Z,13.69
2017-06-08T00:21:58.675Z,13.71
2017-06-08T00:22:39.213Z,13.81
2017-06-08T00:23:19.760Z,13.81
2017-06-08T00:24:00.299Z,13.79
2017-06-08T00:24:40.842Z,13.81
2017-06-08T00:25:21.386Z,13.79
2017-06-08T00:26:01.924Z,13.87
2017-06-08T00:26:42.477Z,13.85
2017-06-08T00:27:23.025Z,13.87
2017-06-08T00:28:03.570Z,13.85
2017-06-08T00:28:44.113Z,13.85
2017-06-08T00:29:24.657Z,13.84
2017-06-08T00:30:05.265Z,13.88
2017-06-08T00:30:45.817Z,13.82
2017-06-08T00:31:26.350Z,13.91
2017-06-08T00:32:06.894Z,13.87
2017-06-08T00:32:47.440Z,13.89
2017-06-08T00:33:27.980Z,13.87
2017-06-08T00:34:08.518Z,13.95
2017-06-08T00:34:49.061Z,13.89
2017-06-08T00:35:29.595Z,13.91
2017-06-08T00:36:10.134Z,13.91
2017-06-08T00:36:50.675Z,13.91
2017-06-08T00:37:31.221Z,13.92
2017-06-08T00:38:11.763Z,13.92
2017-06-08T00:38:52.313Z,13.91
2017-06-08T00:39:32.860Z,13.92
2017-06-08T00:40:13.415Z,13.95
2017-06-08T00:40:53.968Z,14
2017-06-08T00:41:34.515Z,14.03
2017-06-08T00:42:15.065Z,14.03
2017-06-08T00:42:55.635Z,13.95
2017-06-08T00:43:36.184Z,13.88
2017-06-08T00:44:16.717Z,13.95
2017-06-08T00:44:57.264Z,14.02
2017-06-08T00:45:37.820Z,14.03
2017-06-08T00:46:18.376Z,13.92
2017-06-08T00:46:58.919Z,13.99
2017-06-08T00:47:39.463Z,14.03
2017-06-08T00:48:20.004Z,14.02
2017-06-08T00:49:00.542Z,14.02
2017-06-08T00:49:41.066Z,14
2017-06-08T00:50:21.606Z,14.02
2017-06-08T00:51:02.149Z,14.04
2017-06-08T00:51:42.683Z,14.02
2017-06-08T00:52:23.225Z,14
2017-06-08T00:53:03.766Z,14.03
2017-06-08T00:53:44.313Z,14.03
2017-06-08T00:54:24.858Z,14.03
2017-06-08T00:55:05.395Z,14.09
2017-06-08T00:55:45.931Z,14.03
2017-06-08T00:56:26.471Z,14.04
2017-06-08T00:57:07.013Z,14.12
2017-06-08T00:57:47.555Z,14.03
2017-06-08T00:58:28.101Z,14.03
2017-06-08T00:59:08.636Z,14.06
2017-06-08T00:59:49.189Z,14.14
2017-06-08T01:00:29.735Z,14.03
2017-06-08T01:01:10.278Z,14.1
2017-06-08T01:01:50.818Z,14.06
2017-06-08T01:02:31.358Z,14.15
2017-06-08T01:03:11.892Z,14.17
2017-06-08T01:03:52.435Z,14.14
2017-06-08T01:04:32.972Z,14.14
2017-06-08T01:05:13.517Z,14.15
2017-06-08T01:05:54.064Z,14.17
2017-06-08T01:06:34.609Z,14.17
2017-06-08T01:07:15.155Z,14.14
2017-06-08T01:07:55.688Z,14.14
2017-06-08T01:08:36.226Z,14.2
2017-06-08T01:09:16.774Z,14.18
2017-06-08T01:09:57.321Z,14.25
2017-06-08T01:10:37.868Z,14.18
2017-06-08T01:11:18.413Z,14.25
2017-06-08T01:11:58.959Z,14.17
2017-06-08T01:12:39.509Z,14.21
2017-06-08T01:13:20.059Z,14.22
2017-06-08T01:14:00.602Z,14.2
2017-06-08T01:14:41.141Z,14.18
2017-06-08T01:15:21.682Z,14.25
2017-06-08T01:16:02.225Z,14.25
2017-06-08T01:16:42.760Z,14.25
2017-06-08T01:17:23.303Z,14.21
2017-06-08T01:18:03.836Z,14.22
2017-06-08T01:18:44.375Z,14.22
2017-06-08T01:19:24.915Z,14.21
2017-06-08T01:20:05.456Z,14.25
2017-06-08T01:20:45.982Z,14.22
2017-06-08T01:21:26.524Z,14.25
2017-06-08T01:22:07.087Z,14.35
2017-06-08T01:22:47.596Z,14.25
2017-06-08T01:23:28.153Z,14.22
2017-06-08T01:24:08.675Z,14.24
2017-06-08T01:24:49.213Z,14.28
2017-06-08T01:25:29.746Z,14.24
2017-06-08T01:26:10.296Z,14.36
2017-06-08T01:26:50.835Z,14.24
2017-06-08T01:27:31.376Z,14.21
2017-06-08T01:28:11.915Z,14.24
2017-06-08T01:28:52.465Z,14.33
2017-06-08T01:29:33.012Z,14.27
2017-06-08T01:30:13.561Z,14.36
2017-06-08T01:30:54.102Z,14.25
2017-06-08T01:31:34.646Z,14.33
2017-06-08T01:32:15.191Z,14.24
2017-06-08T01:32:55.726Z,14.25
2017-06-08T01:33:36.273Z,14.24
2017-06-08T01:34:16.809Z,14.21
2017-06-08T01:34:57.352Z,14.29
2017-06-08T01:35:37.898Z,14.25
2017-06-08T01:36:18.438Z,14.25
2017-06-08T01:36:58.988Z,14.2
2017-06-08T01:37:39.528Z,14.22
2017-06-08T01:38:20.077Z,14.21
2017-06-08T01:39:00.616Z,14.21
2017-06-08T01:39:41.154Z,14.22
2017-06-08T01:40:21.738Z,14.21
2017-06-08T01:41:02.277Z,14.18
2017-06-08T01:41:42.818Z,14.22
2017-06-08T01:42:23.359Z,14.21
2017-06-08T01:43:03.905Z,14.22
2017-06-08T01:43:44.457Z,14.25
2017-06-08T01:44:25.003Z,14.25
2017-06-08T01:45:05.549Z,14.17
2017-06-08T01:45:46.091Z,14.18
2017-06-08T01:46:26.626Z,14.22
2017-06-08T01:47:07.202Z,14.21
2017-06-08T01:47:47.744Z,14.25
2017-06-08T01:48:28.295Z,14.24
2017-06-08T01:49:08.836Z,14.2
2017-06-08T01:49:49.370Z,14.2
2017-06-08T01:50:29.964Z,14.21
2017-06-08T01:51:10.461Z,14.22
2017-06-08T01:51:51.002Z,14.24
2017-06-08T01:52:31.552Z,14.18
2017-06-08T01:53:12.088Z,14.33
2017-06-08T01:53:52.636Z,14.22
2017-06-08T01:54:33.175Z,14.2
2017-06-08T01:55:13.702Z,14.21
2017-06-08T01:55:54.231Z,14.24
2017-06-08T01:56:34.774Z,14.18
2017-06-08T01:57:15.310Z,14.22
2017-06-08T01:57:55.851Z,14.17
2017-06-08T01:58:36.389Z,14.2
2017-06-08T01:59:16.939Z,14.22
2017-06-08T01:59:57.485Z,14.22
2017-06-08T02:00:38.031Z,14.29
2017-06-08T02:01:18.560Z,14.21
2017-06-08T02:01:59.104Z,14.24
2017-06-08T02:02:39.632Z,14.22
2017-06-08T02:03:20.173Z,14.32
2017-06-08T02:04:00.714Z,14.21
2017-06-08T02:04:41.252Z,14.25
2017-06-08T02:05:21.796Z,14.25
2017-06-08T02:06:02.346Z,14.25
2017-06-08T02:06:42.892Z,14.2
2017-06-08T02:07:23.437Z,14.2
2017-06-08T02:08:03.963Z,14.25
2017-06-08T02:08:44.516Z,14.25
2017-06-08T02:09:25.058Z,14.24
2017-06-08T02:10:05.594Z,14.21
2017-06-08T02:10:46.139Z,14.18
2017-06-08T02:11:26.684Z,14.25
2017-06-08T02:12:07.260Z,14.22
2017-06-08T02:12:47.798Z,14.25
2017-06-08T02:13:28.339Z,14.2
2017-06-08T02:14:08.892Z,14.22
2017-06-08T02:14:49.435Z,14.29
2017-06-08T02:15:29.970Z,14.2
2017-06-08T02:16:10.513Z,14.28
2017-06-08T02:16:51.049Z,14.28
2017-06-08T02:17:31.594Z,14.32
2017-06-08T02:18:12.138Z,14.25
2017-06-08T02:18:52.671Z,14.25
2017-06-08T02:19:33.201Z,14.24
2017-06-08T02:20:13.735Z,14.35
2017-06-08T02:20:54.271Z,14.29
2017-06-08T02:21:34.818Z,14.32
2017-06-08T02:22:15.367Z,14.29
2017-06-08T02:22:55.913Z,14.32
2017-06-08T02:23:36.453Z,14.37
2017-06-08T02:24:16.994Z,14.33
2017-06-08T02:24:57.531Z,14.32
2017-06-08T02:25:38.081Z,14.37
2017-06-08T02:26:18.632Z,14.29
2017-06-08T02:26:59.175Z,14.35
2017-06-08T02:27:39.712Z,14.33
2017-06-08T02:28:20.247Z,14.32
2017-06-08T02:29:00.791Z,14.32
2017-06-08T02:29:41.327Z,14.36
2017-06-08T02:30:21.877Z,14.4
2017-06-08T02:31:02.422Z,14.39
2017-06-08T02:31:42.969Z,14.33
2017-06-08T02:32:23.511Z,14.36
2017-06-08T02:33:04.038Z,14.36
2017-06-08T02:33:44.569Z,14.42
2017-06-08T02:34:25.163Z,14.43
2017-06-08T02:35:05.714Z,14.39
2017-06-08T02:35:46.261Z,14.39
2017-06-08T02:36:26.806Z,14.39
2017-06-08T02:37:07.342Z,14.39
2017-06-08T02:37:47.874Z,14.4
2017-06-08T02:38:28.417Z,14.4
2017-06-08T02:39:08.961Z,14.42
2017-06-08T02:39:49.510Z,14.33
2017-06-08T02:40:30.050Z,14.36
2017-06-08T02:41:10.596Z,14.36
2017-06-08T02:41:51.141Z,14.39
2017-06-08T02:42:31.689Z,14.43
2017-06-08T02:43:12.239Z,14.39
2017-06-08T02:43:52.789Z,14.37
2017-06-08T02:44:33.338Z,14.33
2017-06-08T02:45:13.877Z,14.39
2017-06-08T02:45:54.423Z,14.39
2017-06-08T02:46:34.971Z,14.35
2017-06-08T02:47:15.520Z,14.39
2017-06-08T02:47:56.059Z,14.4
2017-06-08T02:48:36.597Z,14.37
2017-06-08T02:49:17.137Z,14.4
2017-06-08T02:49:57.681Z,14.36
2017-06-08T02:50:38.230Z,14.33
2017-06-08T02:51:18.777Z,14.39
2017-06-08T02:51:59.317Z,14.29
2017-06-08T02:52:39.856Z,14.35
2017-06-08T02:53:20.397Z,14.29
2017-06-08T02:54:00.936Z,14.28
2017-06-08T02:54:41.480Z,14.32
2017-06-08T02:55:22.031Z,14.37
2017-06-08T02:56:02.626Z,14.36
2017-06-08T02:56:43.159Z,14.37
2017-06-08T02:57:23.724Z,14.32
2017-06-08T02:58:04.268Z,14.36
2017-06-08T02:58:44.820Z,14.29
2017-06-08T02:59:25.354Z,14.33
2017-06-08T03:00:05.895Z,14.35
2017-06-08T03:00:46.438Z,14.32
2017-06-08T03:01:26.976Z,14.2
2017-06-08T03:02:07.497Z,14.33
2017-06-08T03:02:48.045Z,14.29
2017-06-08T03:03:28.602Z,14.24
2017-06-08T03:04:09.145Z,14.25
2017-06-08T03:04:49.695Z,14.27
2017-06-08T03:05:30.254Z,14.18
2017-06-08T03:06:10.799Z,14.24
2017-06-08T03:06:51.341Z,14.27
2017-06-08T03:07:31.886Z,14.22
2017-06-08T03:08:12.420Z,14.21
2017-06-08T03:08:52.971Z,14.21
2017-06-08T03:09:33.530Z,14.2
2017-06-08T03:10:14.076Z,14.25
2017-06-08T03:10:54.626Z,14.24
2017-06-08T03:11:35.168Z,14.22
2017-06-08T03:12:15.716Z,14.21
2017-06-08T03:12:56.253Z,14.27
2017-06-08T03:13:36.789Z,14.28
2017-06-08T03:14:17.340Z,14.27
2017-06-08T03:14:57.901Z,14.21
2017-06-08T03:15:38.454Z,14.25
2017-06-08T03:16:19.031Z,14.24
2017-06-08T03:16:59.542Z,14.2
2017-06-08T03:17:40.104Z,14.25
2017-06-08T03:18:20.652Z,14.28
2017-06-08T03:19:01.195Z,14.25
2017-06-08T03:19:41.737Z,14.25
2017-06-08T03:20:22.288Z,14.27
2017-06-08T03:21:02.822Z,14.25
2017-06-08T03:21:43.368Z,14.33
2017-06-08T03:22:23.915Z,14.22
2017-06-08T03:23:04.440Z,14.25
2017-06-08T03:23:44.973Z,14.22
2017-06-08T03:24:25.524Z,14.32
2017-06-08T03:25:06.071Z,14.22
2017-06-08T03:25:46.619Z,14.32
2017-06-08T03:26:27.158Z,14.27
2017-06-08T03:27:07.696Z,14.2
2017-06-08T03:27:48.232Z,14.18
2017-06-08T03:28:28.811Z,14.22
2017-06-08T03:29:09.354Z,14.2
2017-06-08T03:29:49.882Z,14.24
2017-06-08T03:30:30.423Z,14.21
2017-06-08T03:31:10.960Z,14.04
2017-06-08T03:31:51.494Z,14.06
2017-06-08T03:32:32.037Z,14.06
2017-06-08T03:33:12.585Z,14.02
2017-06-08T03:33:53.124Z,14.04
2017-06-08T03:34:33.754Z,13.91
2017-06-08T03:35:14.304Z,13.89
2017-06-08T03:35:54.841Z,13.77
2017-06-08T03:36:35.369Z,13.81
2017-06-08T03:37:15.950Z,13.7
2017-06-08T03:37:56.498Z,13.64
2017-06-08T03:38:37.071Z,13.6
2017-06-08T03:39:17.587Z,13.57
2017-06-08T03:39:58.127Z,13.41
2017-06-08T03:40:38.668Z,13.38
2017-06-08T03:41:19.212Z,13.38
2017-06-08T03:41:59.750Z,13.25
2017-06-08T03:42:40.285Z,13.23
2017-06-08T03:43:20.820Z,13.25
2017-06-08T03:44:01.364Z,13.15
2017-06-08T03:44:41.904Z,13.12
2017-06-08T03:45:22.444Z,13.12
2017-06-08T03:46:02.992Z,13.11
2017-06-08T03:46:43.584Z,13.1
2017-06-08T03:47:24.150Z,13.05
2017-06-08T03:48:04.707Z,13.08
2017-06-08T03:48:45.248Z,12.97
2017-06-08T03:49:25.800Z,13.01
2017-06-08T03:50:06.500Z,13.01
2017-06-08T03:50:47.040Z,13.07
2017-06-08T03:51:27.587Z,13.05
2017-06-08T03:52:08.161Z,13.04
2017-06-08T03:52:48.689Z,12.96
2017-06-08T03:53:29.240Z,13
2017-06-08T03:54:09.783Z,13.07
2017-06-08T03:54:50.328Z,12.96
2017-06-08T03:55:30.864Z,13
2017-06-08T03:56:11.415Z,12.9
2017-06-08T03:56:51.956Z,12.92
2017-06-08T03:57:32.498Z,12.97
2017-06-08T03:58:13.038Z,12.9
2017-06-08T03:58:53.824Z,12.95
2017-06-08T03:59:34.371Z,12.89
2017-06-08T04:00:14.996Z,12.83
2017-06-08T04:00:55.910Z,12.82
2017-06-08T04:01:36.503Z,12.82
2017-06-08T04:02:17.004Z,12.79
2017-06-08T04:02:57.550Z,12.78
2017-06-08T04:03:38.104Z,12.65
2017-06-08T04:04:18.682Z,12.68
2017-06-08T04:04:59.196Z,12.67
2017-06-08T04:05:39.748Z,12.71
2017-06-08T04:06:20.297Z,12.7
2017-06-08T04:07:00.838Z,12.65
2017-06-08T04:07:41.379Z,12.72
2017-06-08T04:08:21.916Z,12.67
2017-06-08T04:09:02.478Z,12.67
2017-06-08T04:09:42.989Z,12.62
2017-06-08T04:10:23.527Z,12.62
2017-06-08T04:11:04.067Z,12.62
2017-06-08T04:11:44.605Z,12.65
2017-06-08T04:12:25.156Z,12.59
2017-06-08T04:13:05.705Z,12.59
2017-06-08T04:13:46.241Z,12.57
2017-06-08T04:14:26.787Z,12.56
2017-06-08T04:15:07.328Z,12.56
2017-06-08T04:15:47.872Z,12.49
2017-06-08T04:16:28.405Z,12.46
2017-06-08T04:17:08.948Z,12.52
2017-06-08T04:17:49.482Z,12.49
2017-06-08T04:18:30.024Z,12.49
2017-06-08T04:19:10.563Z,12.54
2017-06-08T04:19:51.106Z,12.53
2017-06-08T04:20:31.651Z,12.52
2017-06-08T04:21:12.187Z,12.49
2017-06-08T04:21:52.726Z,12.53
2017-06-08T04:22:33.264Z,12.56
2017-06-08T04:23:13.802Z,12.49
2017-06-08T04:23:54.337Z,12.52
2017-06-08T04:24:34.887Z,12.53
2017-06-08T04:25:15.424Z,12.52
2017-06-08T04:25:56.093Z,12.57
2017-06-08T04:26:36.666Z,12.57
2017-06-08T04:27:17.303Z,12.5
2017-06-08T04:27:57.848Z,12.5
2017-06-08T04:28:38.376Z,12.54
2017-06-08T04:29:18.916Z,12.52
2017-06-08T04:29:59.465Z,12.56
2017-06-08T04:30:40.008Z,12.56
2017-06-08T04:31:20.554Z,12.53
2017-06-08T04:32:01.091Z,12.53
2017-06-08T04:32:41.629Z,12.49
2017-06-08T04:33:22.178Z,12.54
2017-06-08T04:34:02.723Z,12.47
2017-06-08T04:34:43.283Z,12.46
2017-06-08T04:35:23.825Z,12.52
2017-06-08T04:36:04.358Z,12.54
2017-06-08T04:36:44.901Z,12.54
2017-06-08T04:37:25.439Z,12.5
2017-06-08T04:38:05.988Z,12.52
2017-06-08T04:38:46.528Z,12.45
2017-06-08T04:39:27.069Z,12.49
2017-06-08T04:40:07.612Z,12.54
2017-06-08T04:40:48.160Z,12.5
2017-06-08T04:41:28.710Z,12.56
2017-06-08T04:42:09.249Z,12.57
2017-06-08T04:42:49.790Z,12.54
2017-06-08T04:43:30.330Z,12.5
2017-06-08T04:44:10.880Z,12.62
2017-06-08T04:44:51.418Z,12.56
2017-06-08T04:45:31.977Z,12.62
2017-06-08T04:46:12.501Z,12.62
2017-06-08T04:46:53.039Z,12.62
2017-06-08T04:47:33.582Z,12.62
2017-06-08T04:48:14.193Z,12.64
2017-06-08T04:48:54.737Z,12.59
2017-06-08T04:49:35.279Z,12.6
2017-06-08T04:50:15.810Z,12.65
2017-06-08T04:50:56.360Z,12.68
2017-06-08T04:51:36.908Z,12.7
2017-06-08T04:52:17.445Z,12.68
2017-06-08T04:52:57.987Z,12.7
2017-06-08T04:53:38.517Z,12.67
2017-06-08T04:54:19.052Z,12.71
2017-06-08T04:54:59.595Z,12.79
2017-06-08T04:55:40.147Z,12.79
2017-06-08T04:56:20.688Z,12.82
2017-06-08T04:57:01.238Z,12.85
2017-06-08T04:57:41.785Z,12.87
2017-06-08T04:58:22.315Z,12.83
2017-06-08T04:59:02.861Z,12.85
2017-06-08T04:59:43.400Z,12.86
2017-06-08T05:00:23.951Z,12.93
2017-06-08T05:01:04.499Z,12.89
2017-06-08T05:01:45.041Z,12.86
2017-06-08T05:02:25.574Z,12.9
2017-06-08T05:03:06.117Z,12.97
2017-06-08T05:03:46.654Z,12.87
2017-06-08T05:04:27.204Z,12.95
2017-06-08T05:05:07.753Z,12.95
2017-06-08T05:05:48.290Z,12.95
2017-06-08T05:06:28.839Z,12.95
2017-06-08T05:07:09.383Z,12.89
2017-06-08T05:07:49.933Z,12.97
2017-06-08T05:08:30.474Z,13
2017-06-08T05:09:11.025Z,12.92
2017-06-08T05:09:51.575Z,12.96
2017-06-08T05:10:32.119Z,12.93
2017-06-08T05:11:12.695Z,12.97
2017-06-08T05:11:53.238Z,13.04
2017-06-08T05:12:33.775Z,12.95
2017-06-08T05:13:14.306Z,13.04
2017-06-08T05:13:54.845Z,13.01
2017-06-08T05:14:35.374Z,13.03
2017-06-08T05:15:15.917Z,13.03
2017-06-08T05:15:56.482Z,13
2017-06-08T05:16:37.021Z,13.07
2017-06-08T05:17:17.568Z,13.05
2017-06-08T05:17:58.118Z,13.1
2017-06-08T05:18:38.657Z,13.1
2017-06-08T05:19:19.194Z,13.12
2017-06-08T05:19:59.754Z,13.08
2017-06-08T05:20:40.282Z,13.14
2017-06-08T05:21:20.826Z,13.11
2017-06-08T05:22:01.422Z,13.08
2017-06-08T05:22:41.935Z,13.11
2017-06-08T05:23:22.479Z,13.15
2017-06-08T05:24:03.025Z,13.2
2017-06-08T05:24:43.565Z,13.17
2017-06-08T05:25:24.105Z,13.2
2017-06-08T05:26:04.638Z,13.11
2017-06-08T05:26:45.177Z,13.19
2017-06-08T05:27:25.722Z,13.15
2017-06-08T05:28:06.262Z,13.17
2017-06-08T05:28:46.799Z,13.22
2017-06-08T05:29:27.355Z,13.14
2017-06-08T05:30:07.905Z,13.19
2017-06-08T05:30:48.454Z,13.19
2017-06-08T05:31:29.007Z,13.2
2017-06-08T05:32:09.554Z,13.22
2017-06-08T05:32:50.111Z,13.26
2017-06-08T05:33:30.659Z,13.25
2017-06-08T05:34:11.208Z,13.25
2017-06-08T05:34:51.755Z,13.25
2017-06-08T05:35:32.313Z,13.26
2017-06-08T05:36:12.887Z,13.26
2017-06-08T05:36:53.475Z,13.33
2017-06-08T05:37:34.018Z,13.28
2017-06-08T05:38:14.581Z,13.28
2017-06-08T05:38:55.128Z,13.33
2017-06-08T05:39:35.690Z,13.3
2017-06-08T05:40:16.227Z,13.33
2017-06-08T05:40:56.795Z,13.44
2017-06-08T05:41:37.404Z,13.36
2017-06-08T05:42:18.025Z,13.45
2017-06-08T05:42:58.574Z,13.45
2017-06-08T05:43:39.128Z,13.41
2017-06-08T05:44:19.692Z,13.46
2017-06-08T05:45:00.233Z,13.42
2017-06-08T05:45:40.776Z,13.44
2017-06-08T05:46:21.322Z,13.48
2017-06-08T05:47:01.879Z,13.52
2017-06-08T05:47:42.427Z,13.49
2017-06-08T05:48:22.980Z,13.49
2017-06-08T05:49:03.552Z,13.55
2017-06-08T05:49:44.089Z,13.6
2017-06-08T05:50:24.648Z,13.59
2017-06-08T05:51:05.202Z,13.54
2017-06-08T05:51:45.750Z,13.64
2017-06-08T05:52:26.353Z,13.59
2017-06-08T05:53:07.200Z,13.63
2017-06-08T05:53:47.827Z,13.67
2017-06-08T05:54:28.374Z,13.73
2017-06-08T05:55:08.913Z,13.69
2017-06-08T05:55:49.457Z,13.78
2017-06-08T05:56:30.017Z,13.82
2017-06-08T05:57:10.555Z,13.84
2017-06-08T05:57:51.097Z,13.87
2017-06-08T05:58:31.652Z,13.81
2017-06-08T05:59:12.189Z,13.96
2017-06-08T05:59:52.738Z,13.97
2017-06-08T06:00:33.285Z,14
2017-06-08T06:01:13.834Z,14.02
2017-06-08T06:01:54.380Z,14.09
2017-06-08T06:02:35.001Z,14.07
2017-06-08T06:03:15.543Z,14.14
2017-06-08T06:03:56.196Z,14.14
2017-06-08T06:04:36.749Z,14.22
2017-06-08T06:05:17.296Z,14.21
2017-06-08T06:05:57.839Z,14.22
2017-06-08T06:06:38.382Z,14.24
2017-06-08T06:07:18.933Z,14.22
2017-06-08T06:07:59.472Z,14.2
2017-06-08T06:08:40.069Z,14.22
2017-06-08T06:09:20.612Z,14.24
2017-06-08T06:10:01.147Z,14.25
2017-06-08T06:10:41.693Z,14.27
2017-06-08T06:11:22.238Z,14.22
2017-06-08T06:12:02.794Z,14.22
2017-06-08T06:12:43.345Z,14.22
2017-06-08T06:13:23.885Z,14.2
2017-06-08T06:14:04.457Z,14.24
2017-06-08T06:14:44.995Z,14.22
2017-06-08T06:15:25.548Z,14.33
2017-06-08T06:16:06.105Z,14.2
2017-06-08T06:16:46.635Z,14.25
2017-06-08T06:17:27.198Z,14.28
2017-06-08T06:18:07.734Z,14.21
2017-06-08T06:18:48.302Z,14.18
2017-06-08T06:19:28.847Z,14.22
2017-06-08T06:20:09.400Z,14.28
2017-06-08T06:20:49.935Z,14.25
2017-06-08T06:21:30.487Z,14.25
2017-06-08T06:22:11.045Z,14.21
2017-06-08T06:22:51.607Z,14.27
2017-06-08T06:23:32.141Z,14.24
2017-06-08T06:24:12.695Z,14.33
2017-06-08T06:24:53.255Z,14.21
2017-06-08T06:25:33.809Z,14.32
2017-06-08T06:26:14.333Z,14.32
2017-06-08T06:26:54.872Z,14.36
2017-06-08T06:27:35.429Z,14.39
2017-06-08T06:28:15.998Z,14.39
2017-06-08T06:28:56.549Z,14.47
2017-06-08T06:29:37.100Z,14.42
2017-06-08T06:30:17.648Z,14.45
2017-06-08T06:30:58.198Z,14.39
2017-06-08T06:31:38.770Z,14.55
2017-06-08T06:32:19.308Z,14.55
2017-06-08T06:32:59.854Z,14.51
2017-06-08T06:33:40.406Z,14.57
2017-06-08T06:34:20.957Z,14.6
2017-06-08T06:35:01.511Z,14.58
2017-06-08T06:35:42.112Z,14.62
2017-06-08T06:36:23.460Z,14.57
2017-06-08T06:37:03.242Z,14.69
2017-06-08T06:37:43.802Z,14.64
2017-06-08T06:38:24.346Z,14.64
2017-06-08T06:39:04.885Z,14.69
2017-06-08T06:39:45.443Z,14.69
2017-06-08T06:40:25.995Z,14.77
2017-06-08T06:41:06.558Z,14.73
2017-06-08T06:41:47.097Z,14.73
2017-06-08T06:42:27.640Z,14.83
2017-06-08T06:43:08.197Z,14.78
2017-06-08T06:43:48.803Z,14.83
2017-06-08T06:44:29.339Z,14.88
2017-06-08T06:45:10.059Z,14.81
2017-06-08T06:45:50.597Z,14.92
2017-06-08T06:46:31.154Z,14.92
2017-06-08T06:47:11.704Z,14.98
2017-06-08T06:47:52.256Z,15.02
2017-06-08T06:48:32.809Z,15.03
2017-06-08T06:49:13.364Z,15.07
2017-06-08T06:49:53.915Z,15.09
2017-06-08T06:50:34.463Z,15.13
2017-06-08T06:51:15.005Z,15.16
2017-06-08T06:51:55.546Z,15.17
2017-06-08T06:52:36.078Z,15.17
2017-06-08T06:53:16.624Z,15.17
2017-06-08T06:53:57.160Z,15.11
2017-06-08T06:54:37.743Z,15.19
2017-06-08T06:55:18.276Z,15.13
2017-06-08T06:55:58.820Z,15.19
2017-06-08T06:56:39.353Z,15.13
2017-06-08T06:57:19.896Z,15.13
2017-06-08T06:58:00.440Z,15.1
2017-06-08T06:58:40.989Z,15.13
2017-06-08T06:59:21.536Z,15.16
2017-06-08T07:00:02.092Z,15.16
2017-06-08T07:00:42.644Z,15.11
2017-06-08T07:01:23.190Z,15.13
2017-06-08T07:02:03.736Z,15.14
2017-06-08T07:02:44.277Z,15.17
2017-06-08T07:03:24.825Z,15.13
2017-06-08T07:04:05.378Z,15.17
2017-06-08T07:04:45.911Z,15.09
2017-06-08T07:05:26.459Z,15.19
2017-06-08T07:06:07.001Z,15.16
2017-06-08T07:06:47.539Z,15.19
2017-06-08T07:07:28.082Z,15.23
2017-06-08T07:08:08.630Z,15.31
2017-06-08T07:08:49.169Z,15.32
2017-06-08T07:09:29.716Z,15.34
2017-06-08T07:10:10.267Z,15.41
2017-06-08T07:10:50.810Z,15.39
2017-06-08T07:11:31.360Z,15.49
2017-06-08T07:12:11.905Z,15.49
2017-06-08T07:12:52.445Z,15.49
2017-06-08T07:13:32.989Z,15.6
2017-06-08T07:14:13.534Z,15.62
2017-06-08T07:14:54.086Z,15.59
2017-06-08T07:15:34.648Z,15.67
2017-06-08T07:16:15.190Z,15.74
2017-06-08T07:16:55.733Z,15.72
2017-06-08T07:17:36.283Z,15.74
2017-06-08T07:18:16.861Z,15.6
2017-06-08T07:18:57.362Z,15.82
2017-06-08T07:19:37.907Z,15.78
2017-06-08T07:20:18.453Z,15.76
2017-06-08T07:20:58.998Z,15.82
2017-06-08T07:21:39.549Z,15.84
2017-06-08T07:22:20.099Z,15.93
2017-06-08T07:23:00.646Z,15.86
2017-06-08T07:23:41.185Z,16.01
2017-06-08T07:24:21.721Z,16.05
2017-06-08T07:25:02.271Z,16
2017-06-08T07:25:42.819Z,16.09
2017-06-08T07:26:23.371Z,16.24
2017-06-08T07:27:03.920Z,16.28
2017-06-08T07:27:44.458Z,16.25
2017-06-08T07:28:25.005Z,16.39
2017-06-08T07:29:05.553Z,16.46
2017-06-08T07:29:46.097Z,16.6
2017-06-08T07:30:26.638Z,16.6
2017-06-08T07:31:07.220Z,16.61
2017-06-08T07:31:47.770Z,16.81
2017-06-08T07:32:28.314Z,16.91
2017-06-08T07:33:08.876Z,16.96
2017-06-08T07:33:49.419Z,16.89
2017-06-08T07:34:30.027Z,17.08
2017-06-08T07:35:10.575Z,17.14
2017-06-08T07:35:51.117Z,17.21
2017-06-08T07:36:31.674Z,17.3
2017-06-08T07:37:12.219Z,17.26
2017-06-08T07:37:52.788Z,17.21
2017-06-08T07:38:33.327Z,17.26
2017-06-08T07:39:13.872Z,17.3
2017-06-08T07:39:54.435Z,17.22
2017-06-08T07:40:34.982Z,17.18
2017-06-08T07:41:15.526Z,17.31
2017-06-08T07:41:56.074Z,17.25
2017-06-08T07:42:36.634Z,17.25
2017-06-08T07:43:17.169Z,17.16
2017-06-08T07:43:57.713Z,17.06
2017-06-08T07:44:38.262Z,17.08
2017-06-08T07:45:18.810Z,17.06
2017-06-08T07:45:59.343Z,17.07
2017-06-08T07:46:39.913Z,17.04
2017-06-08T07:47:20.457Z,17.04
2017-06-08T07:48:00.998Z,17.04
2017-06-08T07:48:41.546Z,17.08
2017-06-08T07:49:22.096Z,17.04
2017-06-08T07:50:02.650Z,17.04
2017-06-08T07:50:43.188Z,17.06
2017-06-08T07:51:23.737Z,17.18
2017-06-08T07:52:04.283Z,17.07
2017-06-08T07:52:44.831Z,17.04
2017-06-08T07:53:25.372Z,17.14
2017-06-08T07:54:05.923Z,17.18
2017-06-08T07:54:46.459Z,17.19
2017-06-08T07:55:26.996Z,17.28
2017-06-08T07:56:07.542Z,17.25
2017-06-08T07:56:48.090Z,17.37
2017-06-08T07:57:28.625Z,17.56
2017-06-08T07:58:09.170Z,17.56
2017-06-08T07:58:49.726Z,17.72
2017-06-08T07:59:30.280Z,17.78
2017-06-08T08:00:10.828Z,17.93
2017-06-08T08:00:51.370Z,18.05
2017-06-08T08:01:31.912Z,18.17
2017-06-08T08:02:12.469Z,18.27
2017-06-08T08:02:53.009Z,18.32
2017-06-08T08:03:33.557Z,18.51
2017-06-08T08:04:14.109Z,18.54
2017-06-08T08:04:54.655Z,18.63
2017-06-08T08:05:35.202Z,18.63
2017-06-08T08:06:15.762Z,18.69
2017-06-08T08:06:56.312Z,18.73
2017-06-08T08:07:36.857Z,18.84
2017-06-08T08:08:17.405Z,18.9
2017-06-08T08:08:57.957Z,18.92
2017-06-08T08:09:38.507Z,18.94
2017-06-08T08:10:19.055Z,19.02
2017-06-08T08:10:59.615Z,19.18
2017-06-08T08:11:40.168Z,19.11
2017-06-08T08:12:20.718Z,19.25
2017-06-08T08:13:01.266Z,19.39
2017-06-08T08:13:41.811Z,19.44
2017-06-08T08:14:22.357Z,19.54
2017-06-08T08:15:02.908Z,19.58
2017-06-08T08:15:43.454Z,19.61
2017-06-08T08:16:24.011Z,19.54
2017-06-08T08:17:04.563Z,19.51
2017-06-08T08:17:45.112Z,19.43
2017-06-08T08:18:25.663Z,19.43
2017-06-08T08:19:06.209Z,19.31
2017-06-08T08:19:46.774Z,19.25
2017-06-08T08:20:27.378Z,19.21
2017-06-08T08:21:07.938Z,19.14
2017-06-08T08:21:48.485Z,19.14
2017-06-08T08:22:29.036Z,19.07
2017-06-08T08:23:09.586Z,19.06
2017-06-08T08:23:50.136Z,19.11
2017-06-08T08:24:30.681Z,19.04
2017-06-08T08:25:11.235Z,19.02
2017-06-08T08:25:51.785Z,19.04
2017-06-08T08:26:32.333Z,19.08
2017-06-08T08:27:12.884Z,19.19
2017-06-08T08:27:53.434Z,19.19
2017-06-08T08:28:33.985Z,19.36
2017-06-08T08:29:14.534Z,19.43
2017-06-08T08:29:55.088Z,19.63
2017-06-08T08:30:35.639Z,19.73
2017-06-08T08:31:16.192Z,19.68
2017-06-08T08:31:56.731Z,19.71
2017-06-08T08:32:37.275Z,19.78
2017-06-08T08:33:17.822Z,19.84
2017-06-08T08:33:58.381Z,20.13
2017-06-08T08:34:38.926Z,20.1
2017-06-08T08:35:19.477Z,20.33
2017-06-08T08:36:00.017Z,20.35
2017-06-08T08:36:40.566Z,20.48
2017-06-08T08:37:21.118Z,20.62
2017-06-08T08:38:01.664Z,20.69
2017-06-08T08:38:42.234Z,20.62
2017-06-08T08:39:22.773Z,20.58
2017-06-08T08:40:03.345Z,20.31
2017-06-08T08:40:43.903Z,20.21
2017-06-08T08:41:24.454Z,20.17
2017-06-08T08:42:05.002Z,20.02
2017-06-08T08:42:45.552Z,19.91
2017-06-08T08:43:26.095Z,19.86
2017-06-08T08:44:06.655Z,19.96
2017-06-08T08:44:47.206Z,20.14
2017-06-08T08:45:27.754Z,20.23
2017-06-08T08:46:08.302Z,20.26
2017-06-08T08:46:48.853Z,20.48
2017-06-08T08:47:29.405Z,20.73